Time;durP1;ratioP1;P1;durP2;ratioP2;P2;SDS_P1;SDS_P2;PMS_P1;PMS_P2;Temp;Humidity;BMP_temperature;BMP_pressure;BME280_temperature;BME280_humidity;BME280_pressure;Samples;Min_cycle;Max_cycle;Signal;HPM_P1;HPM_P2
2024/04/22 00:02:10;;;;;;;3.57;3.27;;;3.10;99.90;;;;;;6373953;22;20329;-84
2024/04/22 00:04:35;;;;;;;3.53;3.23;;;3.10;99.90;;;;;;6374363;22;20305;-84
2024/04/22 00:07:04;;;;;;;3.10;2.80;;;3.00;99.90;;;;;;6373634;22;20225;-85
2024/04/22 00:09:30;;;;;;;3.40;3.10;;;3.10;99.90;;;;;;6374088;22;20320;-85
2024/04/22 00:12:01;;;;;;;3.30;3.00;;;3.10;99.90;;;;;;6372451;22;20540;-85
2024/04/22 00:14:27;;;;;;;3.43;3.13;;;3.10;99.90;;;;;;6373333;22;20304;-85
2024/04/22 00:16:55;;;;;;;2.90;2.57;;;3.00;99.90;;;;;;6374470;22;20221;-84
2024/04/22 00:19:21;;;;;;;2.63;2.43;;;2.90;99.90;;;;;;6372702;22;20209;-85
2024/04/22 00:21:50;;;;;;;2.70;2.50;;;2.80;99.90;;;;;;6369982;22;20324;-85
2024/04/22 00:24:16;;;;;;;3.53;2.63;;;2.70;99.90;;;;;;6374324;22;20221;-84
2024/04/22 00:26:44;;;;;;;2.33;2.20;;;2.60;99.90;;;;;;6373861;22;20617;-84
2024/04/22 00:29:16;;;;;;;2.90;2.70;;;2.50;99.90;;;;;;6373905;22;20292;-84
2024/04/22 00:31:41;;;;;;;2.63;2.43;;;2.40;99.90;;;;;;6374062;22;20217;-84
2024/04/22 00:34:12;;;;;;;3.30;3.00;;;2.40;99.90;;;;;;6373513;22;20333;-84
2024/04/22 00:36:38;;;;;;;3.00;2.70;;;2.40;99.90;;;;;;6373883;22;20225;-84
2024/04/22 00:39:06;;;;;;;2.97;2.70;;;2.30;99.90;;;;;;6373303;22;20229;-83
2024/04/22 00:41:35;;;;;;;2.40;2.20;;;2.30;99.90;;;;;;6373543;22;20257;-83
2024/04/22 00:44:03;;;;;;;2.63;2.43;;;2.40;99.90;;;;;;6372397;22;20230;-84
2024/04/22 00:46:32;;;;;;;2.40;2.20;;;2.40;99.90;;;;;;6374162;22;20281;-83
2024/04/22 00:49:01;;;;;;;2.80;2.60;;;2.40;99.90;;;;;;6372282;22;20242;-83
2024/04/22 00:51:27;;;;;;;3.00;2.80;;;2.50;99.90;;;;;;6371772;22;20345;-84
2024/04/22 00:53:57;;;;;;;2.43;2.23;;;2.50;99.90;;;;;;6376299;22;20636;-83
2024/04/22 00:56:28;;;;;;;2.67;2.47;;;2.40;99.90;;;;;;6376244;22;20341;-83
2024/04/22 00:58:57;;;;;;;3.00;2.70;;;2.50;99.90;;;;;;6375482;22;20672;-84
2024/04/22 01:01:24;;;;;;;3.27;3.00;;;2.50;99.90;;;;;;6374757;22;20284;-83
2024/04/22 01:03:55;;;;;;;3.23;2.97;;;2.40;99.90;;;;;;6374545;22;20285;-83
2024/04/22 01:06:21;;;;;;;3.40;3.00;;;2.40;99.90;;;;;;6375719;22;20277;-83
2024/04/22 01:08:50;;;;;;;3.40;3.10;;;2.40;99.90;;;;;;6374966;22;20516;-83
2024/04/22 01:11:16;;;;;;;4.10;3.70;;;2.40;99.90;;;;;;6374940;22;20226;-83
2024/04/22 01:13:45;;;;;;;3.60;3.30;;;2.50;99.90;;;;;;6374929;22;20328;-83
2024/04/22 01:16:10;;;;;;;3.50;3.10;;;2.40;99.90;;;;;;6375690;22;20776;-83
2024/04/22 01:18:39;;;;;;;4.33;3.93;;;2.40;99.90;;;;;;6373611;22;20229;-83
2024/04/22 01:21:07;;;;;;;4.30;3.90;;;2.40;99.90;;;;;;6374005;22;21016;-83
2024/04/22 01:23:39;;;;;;;3.83;3.40;;;2.40;99.90;;;;;;6373855;22;20300;-84
2024/04/22 01:26:07;;;;;;;4.50;3.87;;;2.40;99.90;;;;;;6374614;22;20233;-84
2024/04/22 01:28:35;;;;;;;4.13;3.73;;;2.50;99.90;;;;;;6374563;22;20548;-84
2024/04/22 01:31:01;;;;;;;3.87;3.50;;;2.50;99.90;;;;;;6374365;22;20233;-83
2024/04/22 01:33:30;;;;;;;4.50;3.90;;;2.50;99.90;;;;;;6374993;22;20268;-83
2024/04/22 01:35:56;;;;;;;4.17;3.63;;;2.60;99.90;;;;;;6375928;22;20785;-83
2024/04/22 01:38:24;;;;;;;4.33;3.93;;;2.60;99.90;;;;;;6375064;22;20234;-83
2024/04/22 01:40:52;;;;;;;4.37;3.97;;;2.70;99.90;;;;;;6374924;22;20273;-83
2024/04/22 01:43:21;;;;;;;4.70;4.30;;;2.70;99.90;;;;;;6374094;22;20944;-83
2024/04/22 01:45:48;;;;;;;4.83;4.43;;;2.70;99.90;;;;;;6375595;22;21089;-83
2024/04/22 01:48:17;;;;;;;4.67;4.23;;;2.70;99.90;;;;;;6374570;22;20680;-83
2024/04/22 01:50:45;;;;;;;4.63;4.23;;;2.70;99.90;;;;;;6374949;22;20264;-84
2024/04/22 01:53:13;;;;;;;4.53;4.07;;;2.70;99.90;;;;;;6375759;22;20260;-83
2024/04/22 01:55:39;;;;;;;5.50;4.63;;;2.70;99.90;;;;;;6332388;22;20225;-84
2024/04/22 01:58:10;;;;;;;5.37;4.87;;;2.80;99.90;;;;;;6374034;22;20296;-84
2024/04/22 02:00:37;;;;;;;5.67;5.10;;;2.80;99.90;;;;;;6375677;22;20276;-84
2024/04/22 02:03:05;;;;;;;5.43;4.93;;;2.70;99.90;;;;;;6375330;22;20225;-84
2024/04/22 02:05:32;;;;;;;6.13;5.53;;;2.80;99.90;;;;;;6375542;22;20747;-84
2024/04/22 02:08:00;;;;;;;7.43;6.53;;;2.80;99.90;;;;;;6374512;22;20281;-84
2024/04/22 02:10:26;;;;;;;7.57;6.87;;;2.80;99.90;;;;;;6373519;22;20281;-84
2024/04/22 02:12:55;;;;;;;9.13;7.40;;;2.80;99.90;;;;;;6373736;22;20318;-84
2024/04/22 02:15:23;;;;;;;8.40;7.60;;;2.70;99.90;;;;;;6374621;22;20332;-84
2024/04/22 02:17:53;;;;;;;9.07;7.87;;;2.80;99.90;;;;;;6375058;22;20507;-84
2024/04/22 02:20:19;;;;;;;10.87;8.70;;;2.80;99.90;;;;;;6375623;22;21023;-84
2024/04/22 02:22:47;;;;;;;9.30;8.30;;;2.80;99.90;;;;;;6373938;22;20218;-84
2024/04/22 02:25:13;;;;;;;9.47;7.80;;;2.80;99.90;;;;;;6375732;22;20293;-84
2024/04/22 02:27:42;;;;;;;9.73;7.83;;;3.00;99.90;;;;;;6374123;22;20222;-84
2024/04/22 02:30:08;;;;;;;10.30;8.20;;;3.00;99.90;;;;;;6374492;22;20222;-84
2024/04/22 02:32:40;;;;;;;9.40;8.27;;;2.90;99.90;;;;;;6374523;22;20263;-85
2024/04/22 02:35:06;;;;;;;10.20;8.43;;;2.90;99.90;;;;;;6375312;22;20717;-85
2024/04/22 02:37:35;;;;;;;10.07;8.43;;;3.00;99.90;;;;;;6373696;22;20229;-84
2024/04/22 02:40:00;;;;;;;10.60;8.10;;;2.90;99.90;;;;;;6375786;22;20234;-84
2024/04/22 02:42:29;;;;;;;10.87;9.30;;;2.90;99.90;;;;;;6367844;22;20260;-84
2024/04/22 02:44:55;;;;;;;12.13;8.20;;;2.90;99.90;;;;;;6375728;22;20325;-84
2024/04/22 02:47:23;;;;;;;13.47;8.50;;;2.90;99.90;;;;;;6373966;22;20642;-84
2024/04/22 02:49:52;;;;;;;12.60;8.20;;;2.90;99.90;;;;;;6375253;22;20237;-84
2024/04/22 02:52:20;;;;;;;9.37;8.37;;;2.90;99.90;;;;;;6374238;22;20829;-85
2024/04/22 02:54:46;;;;;;;9.80;8.10;;;2.90;99.90;;;;;;6375034;22;20289;-84
2024/04/22 02:57:15;;;;;;;10.83;8.53;;;2.90;99.90;;;;;;6374074;22;20333;-85
2024/04/22 02:59:41;;;;;;;11.33;8.60;;;2.90;99.90;;;;;;6373922;22;20349;-84
2024/04/22 03:02:09;;;;;;;11.33;7.90;;;2.80;99.90;;;;;;6374395;22;20312;-84
2024/04/22 03:04:35;;;;;;;10.67;8.10;;;2.80;99.90;;;;;;6373130;22;20289;-84
2024/04/22 03:07:07;;;;;;;9.47;7.80;;;2.90;99.90;;;;;;6374004;22;20317;-85
2024/04/22 03:09:38;;;;;;;10.20;8.20;;;2.90;99.90;;;;;;6374086;22;20696;-84
2024/04/22 03:12:07;;;;;;;9.97;8.03;;;2.80;99.90;;;;;;6374368;22;20281;-84
2024/04/22 03:14:33;;;;;;;10.17;8.53;;;2.80;99.90;;;;;;6374880;22;20237;-84
2024/04/22 03:17:02;;;;;;;9.33;8.07;;;2.80;99.90;;;;;;6374272;22;20328;-84
2024/04/22 03:19:28;;;;;;;9.90;8.43;;;2.70;99.90;;;;;;6373922;22;20233;-84
2024/04/22 03:21:56;;;;;;;10.10;8.57;;;2.70;99.90;;;;;;6374045;22;20316;-85
2024/04/22 03:24:25;;;;;;;12.67;8.17;;;2.80;99.90;;;;;;6374853;22;20332;-84
2024/04/22 03:26:53;;;;;;;10.77;8.67;;;2.80;99.90;;;;;;6374514;22;20229;-85
2024/04/22 03:29:19;;;;;;;10.13;8.13;;;2.80;99.90;;;;;;6374642;22;20674;-84
2024/04/22 03:31:47;;;;;;;9.50;8.50;;;2.80;99.90;;;;;;6370846;22;20230;-84
2024/04/22 03:34:13;;;;;;;11.03;8.20;;;2.80;99.90;;;;;;6373988;22;20329;-84
2024/04/22 03:36:42;;;;;;;12.97;8.03;;;2.70;99.90;;;;;;6374044;22;20272;-84
2024/04/22 03:39:11;;;;;;;9.90;8.30;;;2.70;99.90;;;;;;6331982;22;20238;-85
2024/04/22 03:41:42;;;;;;;9.10;8.07;;;2.70;99.90;;;;;;6331311;22;20234;-85
2024/04/22 03:44:11;;;;;;;12.20;8.13;;;2.70;99.90;;;;;;6330768;22;20738;-84
2024/04/22 03:52:17;;;;;;;12.33;8.80;;;2.70;99.90;;;;;;6377034;22;20336;-84
2024/04/22 03:54:45;;;;;;;11.53;8.43;;;2.70;99.90;;;;;;6374135;22;20272;-84
2024/04/22 03:57:14;;;;;;;11.67;8.53;;;2.70;99.90;;;;;;6331066;22;20684;-84
2024/04/22 03:59:43;;;;;;;12.00;8.80;;;2.70;99.90;;;;;;6373431;22;20276;-84
2024/04/22 04:02:08;;;;;;;12.67;7.93;;;2.80;99.90;;;;;;6371405;22;20361;-83
2024/04/22 04:04:37;;;;;;;10.07;8.00;;;3.00;99.90;;;;;;6374236;22;20669;-84
2024/04/22 04:07:03;;;;;;;10.37;8.30;;;2.90;99.90;;;;;;6374493;22;20635;-85
2024/04/22 04:09:32;;;;;;;11.47;8.27;;;2.90;99.90;;;;;;6331280;22;20264;-85
2024/04/22 04:11:58;;;;;;;9.17;7.53;;;2.90;99.90;;;;;;6329648;22;20854;-84
2024/04/22 04:14:29;;;;;;;9.17;8.13;;;2.90;99.90;;;;;;6374535;22;20229;-84
2024/04/22 04:16:55;;;;;;;8.83;7.53;;;2.80;99.90;;;;;;6372768;22;20277;-84
2024/04/22 04:19:25;;;;;;;11.23;8.63;;;2.80;99.80;;;;;;6373265;22;20344;-85
2024/04/22 04:21:51;;;;;;;10.43;8.40;;;2.80;99.80;;;;;;6370673;22;20242;-84
2024/04/22 04:24:20;;;;;;;12.00;7.97;;;2.80;99.90;;;;;;6373150;22;20260;-84
2024/04/22 04:26:46;;;;;;;8.87;7.87;;;2.80;99.90;;;;;;6376907;22;20225;-84
2024/04/22 04:29:14;;;;;;;10.77;8.83;;;2.80;99.90;;;;;;6377536;22;20225;-84
2024/04/22 04:31:46;;;;;;;10.23;7.77;;;2.80;99.90;;;;;;6376378;22;20354;-84
2024/04/22 04:34:13;;;;;;;10.87;7.73;;;2.90;99.90;;;;;;6376512;22;20229;-85
2024/04/22 04:36:42;;;;;;;8.20;7.40;;;2.90;99.80;;;;;;6378277;22;20256;-84
2024/04/22 04:39:08;;;;;;;10.67;7.77;;;2.90;99.80;;;;;;6376599;22;20267;-83
2024/04/22 04:41:36;;;;;;;9.17;7.80;;;2.80;99.80;;;;;;6375401;22;20241;-84
2024/04/22 04:44:02;;;;;;;9.70;7.90;;;2.80;99.80;;;;;;6377111;22;20237;-84
2024/04/22 04:46:31;;;;;;;9.50;7.63;;;2.80;99.80;;;;;;6377817;22;20772;-83
2024/04/22 04:49:02;;;;;;;9.93;7.57;;;2.90;99.80;;;;;;6376659;22;20335;-83
2024/04/22 04:51:27;;;;;;;11.83;8.00;;;2.90;99.80;;;;;;6376337;22;20526;-83
2024/04/22 04:53:56;;;;;;;11.10;8.03;;;2.80;99.80;;;;;;6376764;22;20269;-83
2024/04/22 04:56:22;;;;;;;9.27;7.73;;;2.90;99.80;;;;;;6377757;22;20233;-83
2024/04/22 04:58:50;;;;;;;9.80;7.53;;;2.80;99.80;;;;;;6376873;22;20225;-83
2024/04/22 05:01:16;;;;;;;9.83;8.03;;;2.90;99.80;;;;;;6376145;22;20296;-84
2024/04/22 05:03:45;;;;;;;10.00;7.33;;;2.90;99.80;;;;;;6376391;22;20234;-84
2024/04/22 05:06:13;;;;;;;8.07;7.23;;;2.90;99.80;;;;;;6375420;22;20279;-84
2024/04/22 05:08:42;;;;;;;8.87;7.33;;;2.90;99.80;;;;;;6333502;22;20225;-82
2024/04/22 05:11:08;;;;;;;10.07;7.33;;;3.00;99.30;;;;;;6377530;22;20801;-83
2024/04/22 05:13:36;;;;;;;11.53;8.20;;;3.00;99.00;;;;;;6375702;22;20237;-84
2024/04/22 05:16:02;;;;;;;11.07;7.83;;;2.90;99.10;;;;;;6374069;22;20334;-85
2024/04/22 05:18:31;;;;;;;12.90;7.70;;;2.90;99.20;;;;;;6374141;22;20553;-85
2024/04/22 05:20:57;;;;;;;8.33;7.17;;;2.90;99.20;;;;;;6377506;22;20354;-86
2024/04/22 05:23:28;;;;;;;8.70;7.40;;;2.90;99.40;;;;;;6375951;22;20229;-85
2024/04/22 05:25:54;;;;;;;8.60;7.03;;;2.90;99.10;;;;;;6376895;22;20296;-86
2024/04/22 05:28:26;;;;;;;10.00;8.00;;;2.80;99.10;;;;;;6376450;22;20586;-85
2024/04/22 05:30:52;;;;;;;11.17;7.87;;;2.80;99.80;;;;;;6376706;22;20222;-85
2024/04/22 05:36:14;;;;;;;9.17;7.57;;;2.80;99.30;;;;;;6378381;22;20329;-86
2024/04/22 05:38:48;;;;;;;9.20;7.07;;;2.70;99.10;;;;;;6373881;22;20229;-86
2024/04/22 05:41:16;;;;;;;8.87;7.57;;;2.70;99.30;;;;;;6374843;22;20263;-86
2024/04/22 05:43:45;;;;;;;10.10;7.50;;;2.80;99.80;;;;;;6375263;22;20264;-86
2024/04/22 05:46:14;;;;;;;11.83;7.90;;;2.80;99.70;;;;;;6372493;22;20271;-86
2024/04/22 05:48:42;;;;;;;8.17;7.27;;;2.80;99.00;;;;;;6374873;22;20233;-85
2024/04/22 05:51:11;;;;;;;10.27;7.87;;;2.80;98.60;;;;;;6376892;22;20402;-87
2024/04/22 05:53:40;;;;;;;8.67;7.40;;;2.80;98.60;;;;;;6371506;22;20237;-87
2024/04/22 05:56:11;;;;;;;9.73;7.13;;;2.90;98.40;;;;;;6374473;22;20225;-86
2024/04/22 05:58:37;;;;;;;8.83;7.30;;;2.90;98.10;;;;;;6376309;22;20237;-85
2024/04/22 06:01:06;;;;;;;10.03;7.97;;;2.90;98.20;;;;;;6332807;22;20815;-85
2024/04/22 06:03:33;;;;;;;9.83;7.77;;;2.90;98.10;;;;;;6374122;22;20285;-86
2024/04/22 06:06:02;;;;;;;8.80;7.33;;;2.90;98.60;;;;;;6375548;22;20323;-85
2024/04/22 06:08:28;;;;;;;14.10;7.67;;;2.90;99.00;;;;;;6375665;22;20357;-85
2024/04/22 06:10:56;;;;;;;10.20;7.30;;;2.90;99.10;;;;;;6375158;22;20268;-85
2024/04/22 06:13:25;;;;;;;9.43;7.77;;;2.90;99.10;;;;;;6375182;22;20277;-86
2024/04/22 06:15:54;;;;;;;9.27;7.13;;;3.00;99.10;;;;;;6331690;22;20715;-85
2024/04/22 06:18:20;;;;;;;9.93;7.53;;;3.10;98.90;;;;;;6375391;22;20297;-84
2024/04/22 06:20:48;;;;;;;8.83;7.13;;;3.10;99.40;;;;;;6374613;22;20329;-84
2024/04/22 06:23:14;;;;;;;8.47;7.07;;;3.20;98.40;;;;;;6373838;22;20264;-87
2024/04/22 06:25:42;;;;;;;10.00;7.00;;;3.30;97.90;;;;;;6375473;22;20221;-86
2024/04/22 06:28:08;;;;;;;9.00;7.10;;;3.40;97.60;;;;;;6374019;22;20340;-87
2024/04/22 06:30:39;;;;;;;9.17;6.37;;;3.50;97.40;;;;;;6375184;22;20225;-83
2024/04/22 06:33:05;;;;;;;7.47;6.43;;;3.60;97.10;;;;;;6374717;22;20284;-87
2024/04/22 06:35:34;;;;;;;8.37;6.70;;;3.80;96.30;;;;;;6375282;22;20336;-87
2024/04/22 06:38:00;;;;;;;6.97;5.77;;;3.90;95.60;;;;;;6375445;22;20293;-86
2024/04/22 06:40:28;;;;;;;7.07;6.10;;;4.00;94.90;;;;;;6374867;22;20225;-86
2024/04/22 06:42:54;;;;;;;10.00;6.30;;;4.00;94.90;;;;;;6374344;22;20242;-86
2024/04/22 06:45:23;;;;;;;7.50;6.70;;;4.00;94.90;;;;;;6375007;22;20230;-87
2024/04/22 06:47:51;;;;;;;7.57;5.53;;;3.80;95.00;;;;;;6374344;22;20479;-86
2024/04/22 06:50:20;;;;;;;7.63;6.27;;;3.90;94.80;;;;;;6373456;22;20718;-87
2024/04/22 06:52:46;;;;;;;7.10;5.80;;;4.10;94.90;;;;;;6374724;22;20328;-85
2024/04/22 06:55:14;;;;;;;7.70;6.57;;;4.00;94.70;;;;;;6375654;22;20230;-87
2024/04/22 06:57:40;;;;;;;7.60;5.80;;;4.20;94.50;;;;;;6373906;22;20251;-86
2024/04/22 07:00:09;;;;;;;7.57;5.40;;;4.50;93.30;;;;;;6374470;22;20233;-86
2024/04/22 07:02:35;;;;;;;6.63;5.17;;;4.50;92.80;;;;;;6374058;22;20225;-86
2024/04/22 07:05:07;;;;;;;5.50;5.00;;;4.60;92.30;;;;;;6330903;22;20302;-85
2024/04/22 07:07:32;;;;;;;10.97;5.70;;;4.60;92.60;;;;;;6374434;22;20217;-85
2024/04/22 07:10:01;;;;;;;7.73;5.40;;;4.60;92.30;;;;;;6331474;22;20665;-86
2024/04/22 07:12:27;;;;;;;8.10;5.30;;;4.60;92.30;;;;;;6374875;22;20234;-85
2024/04/22 07:14:56;;;;;;;8.13;5.77;;;4.50;92.40;;;;;;6331493;22;20237;-83
2024/04/22 07:17:21;;;;;;;7.27;5.80;;;4.40;92.70;;;;;;6375114;22;20355;-84
2024/04/22 07:19:51;;;;;;;7.87;5.50;;;4.30;92.60;;;;;;6331191;22;20237;-85
2024/04/22 07:22:20;;;;;;;7.53;5.17;;;4.50;92.30;;;;;;6374953;22;20221;-86
2024/04/22 07:24:50;;;;;;;5.60;5.00;;;4.70;91.70;;;;;;6374081;22;20221;-86
2024/04/22 07:27:16;;;;;;;5.80;4.73;;;4.80;90.30;;;;;;6374323;22;20233;-86
2024/04/22 07:29:45;;;;;;;5.97;5.07;;;4.70;90.40;;;;;;6331017;22;20225;-85
2024/04/22 07:32:12;;;;;;;6.70;4.90;;;4.60;90.20;;;;;;6373656;22;20335;-86
2024/04/22 07:34:42;;;;;;;5.47;4.60;;;4.60;90.10;;;;;;6373676;22;20237;-85
2024/04/22 07:37:15;;;;;;;6.07;5.00;;;4.70;90.10;;;;;;6374075;22;20234;-84
2024/04/22 07:39:49;;;;;;;6.37;4.67;;;4.80;88.80;;;;;;6373808;22;20222;-84
2024/04/22 07:42:15;;;;;;;5.23;4.53;;;4.90;88.90;;;;;;6373968;22;20285;-87
2024/04/22 07:44:43;;;;;;;5.57;4.13;;;5.30;82.10;;;;;;6373920;22;20316;-86
2024/04/22 07:47:09;;;;;;;4.57;4.10;;;5.50;82.50;;;;;;6373676;22;20342;-86
2024/04/22 07:49:38;;;;;;;5.10;4.33;;;5.70;78.80;;;;;;6373301;22;20253;-86
2024/04/22 07:52:04;;;;;;;4.80;4.30;;;5.80;78.10;;;;;;6374613;22;20720;-87
2024/04/22 07:54:34;;;;;;;4.88;4.38;;;5.90;77.00;;;;;;6372751;22;20226;-90
2024/04/22 07:57:03;;;;;;;7.55;4.90;;;6.00;79.40;;;;;;6374207;22;20894;-87
2024/04/22 07:59:32;;;;;;;4.93;4.43;;;6.00;78.10;;;;;;6373324;22;20268;-85
2024/04/22 08:01:59;;;;;;;5.97;4.60;;;6.10;75.50;;;;;;6373420;22;20237;-87
2024/04/22 08:04:28;;;;;;;6.22;4.35;;;6.30;73.90;;;;;;6373219;22;20305;-89
2024/04/22 08:07:00;;;;;;;5.13;4.63;;;6.80;66.50;;;;;;6373147;22;20289;-89
2024/04/22 08:12:53;;;;;;;5.07;4.20;;;7.00;68.70;;;;;;6375140;22;20575;-90
2024/04/22 08:15:19;;;;;;;8.55;4.25;;;7.40;56.40;;;;;;6375291;22;20281;-89
2024/04/22 08:17:50;;;;;;;4.80;4.00;;;7.40;54.50;;;;;;6292829;22;20244;-91
2024/04/22 08:20:16;;;;;;;5.88;3.85;;;7.40;46.20;;;;;;6376802;22;20229;-90
2024/04/22 08:22:53;;;;;;;5.13;3.97;;;7.40;49.50;;;;;;6376898;22;20307;-92
2024/04/22 08:25:23;;;;;;;9.60;4.55;;;7.50;51.40;;;;;;6374800;22;20229;-92
2024/04/22 08:30:43;;;;;;;4.60;3.97;;;7.20;46.00;;;;;;6368249;22;20217;-90
2024/04/22 08:33:09;;;;;;;5.57;4.00;;;7.30;46.10;;;;;;6372144;22;20309;-90
2024/04/22 08:35:46;;;;;;;4.32;3.92;;;7.20;46.10;;;;;;6374406;22;20559;-89
2024/04/22 08:38:12;;;;;;;6.07;4.13;;;7.20;48.40;;;;;;6373213;22;20259;-89
2024/04/22 08:40:44;;;;;;;4.78;4.28;;;7.30;48.40;;;;;;6331141;22;20230;-89
2024/04/22 08:43:13;;;;;;;6.65;3.92;;;7.30;46.10;;;;;;6374451;22;20357;-88
2024/04/22 08:45:43;;;;;;;9.95;4.45;;;7.40;46.20;;;;;;6372970;22;20281;-88
2024/04/22 08:48:09;;;;;;;6.13;4.13;;;7.30;49.10;;;;;;6373196;22;20790;-87
2024/04/22 08:50:40;;;;;;;8.05;4.57;;;7.00;45.90;;;;;;6373518;22;20238;-87
2024/04/22 08:53:34;;;;;;;6.70;4.10;;;7.30;46.10;;;;;;6379412;22;20341;-92
2024/04/22 08:58:55;;;;;;;4.10;3.70;;;8.50;35.90;;;;;;6375179;22;20292;-90
2024/04/22 09:01:21;;;;;;;4.30;3.38;;;8.80;30.30;;;;;;6373624;22;20225;-87
2024/04/22 09:03:49;;;;;;;4.25;3.85;;;9.20;27.70;;;;;;6374270;22;20221;-88
2024/04/22 09:06:15;;;;;;;4.75;4.00;;;9.30;27.30;;;;;;6373630;22;20281;-89
2024/04/22 09:08:45;;;;;;;5.53;5.00;;;9.70;24.80;;;;;;6370542;22;20783;-88
2024/04/22 09:11:15;;;;;;;5.28;3.50;;;10.60;23.20;;;;;;6331958;22;20669;-88
2024/04/22 09:13:46;;;;;;;4.93;3.80;;;11.90;18.70;;;;;;6375719;22;20217;-89
2024/04/22 09:16:14;;;;;;;5.80;3.50;;;12.20;17.30;;;;;;6376817;22;20328;-88
2024/04/22 09:18:43;;;;;;;3.97;3.58;;;12.70;15.20;;;;;;6375221;22;20225;-89
2024/04/22 09:21:10;;;;;;;4.60;3.53;;;13.10;14.80;;;;;;6375282;22;20293;-87
2024/04/22 09:27:11;;;;;;;5.53;3.60;;;11.20;16.40;;;;;;6382899;22;20245;-93
2024/04/22 09:30:16;;;;;;;4.28;3.53;;;10.40;18.00;;;;;;6385996;22;20267;-92
2024/04/22 09:50:07;;;;;;;5.55;3.03;;;10.00;19.00;;;;;;6244698;22;20289;-87
2024/04/22 09:52:34;;;;;;;6.18;2.97;;;10.30;16.70;;;;;;6272783;22;20242;-87
2024/04/22 09:55:03;;;;;;;3.47;3.13;;;11.20;15.50;;;;;;6325768;22;20328;-87
2024/04/22 09:57:30;;;;;;;4.93;3.65;;;11.50;16.00;;;;;;6325931;22;20234;-87
2024/04/22 10:00:00;;;;;;;4.30;3.90;;;10.90;16.40;;;;;;6326876;22;20238;-90
2024/04/22 10:02:26;;;;;;;3.53;3.22;;;10.40;17.90;;;;;;6325335;22;20223;-86
2024/04/22 10:04:55;;;;;;;3.42;3.13;;;10.30;17.50;;;;;;6325195;22;20286;-87
2024/04/22 10:07:24;;;;;;;4.15;3.75;;;9.70;20.00;;;;;;6282949;22;20268;-88
2024/04/22 10:09:54;;;;;;;4.63;3.45;;;9.10;23.10;;;;;;6284636;22;20227;-86
2024/04/22 10:12:25;;;;;;;3.40;3.10;;;8.90;24.20;;;;;;6326773;22;20235;-86
2024/04/22 10:15:05;;;;;;;5.43;3.70;;;8.80;24.10;;;;;;6326740;22;20307;-87
2024/04/22 10:17:31;;;;;;;4.75;3.92;;;8.50;23.90;;;;;;6326589;22;20341;-88
2024/04/22 10:20:01;;;;;;;4.10;3.67;;;8.80;24.10;;;;;;6325835;22;20227;-86
2024/04/22 10:22:32;;;;;;;4.47;3.90;;;8.60;24.00;;;;;;6325701;22;20261;-86
2024/04/22 10:25:02;;;;;;;3.65;3.33;;;8.80;24.10;;;;;;6326369;22;20302;-86
2024/04/22 10:27:28;;;;;;;4.18;3.78;;;9.30;24.50;;;;;;6327782;22;20282;-86
2024/04/22 10:29:58;;;;;;;4.15;3.75;;;9.90;20.40;;;;;;6326834;22;20226;-86
2024/04/22 10:32:25;;;;;;;3.70;3.33;;;9.80;20.50;;;;;;6325925;22;20234;-88
2024/04/22 10:34:54;;;;;;;3.65;3.35;;;9.60;22.40;;;;;;6326821;22;20322;-88
2024/04/22 10:37:20;;;;;;;4.45;4.05;;;9.50;24.70;;;;;;6324866;22;20234;-87
2024/04/22 10:39:52;;;;;;;4.55;3.90;;;9.40;24.60;;;;;;6321834;22;20704;-87
2024/04/22 10:42:19;;;;;;;4.68;4.22;;;9.20;24.50;;;;;;6323870;22;20331;-87
2024/04/22 10:44:48;;;;;;;5.32;4.25;;;8.90;24.20;;;;;;6323782;22;20273;-89
2024/04/22 10:47:14;;;;;;;5.43;4.25;;;8.70;26.90;;;;;;6281731;22;20223;-87
2024/04/22 10:49:44;;;;;;;5.45;4.55;;;8.50;27.90;;;;;;6324976;22;20242;-85
2024/04/22 10:52:10;;;;;;;6.45;4.88;;;8.30;29.40;;;;;;6324514;22;20227;-88
2024/04/22 10:54:38;;;;;;;5.28;4.78;;;8.10;32.60;;;;;;6325667;22;20335;-90
2024/04/22 10:57:08;;;;;;;4.90;4.40;;;8.30;31.40;;;;;;6326119;22;20286;-89
2024/04/22 10:59:36;;;;;;;5.15;4.65;;;8.20;33.80;;;;;;6324991;22;20682;-84
2024/04/22 11:02:02;;;;;;;5.15;4.32;;;8.10;35.30;;;;;;6325445;22;20290;-85
2024/04/22 11:04:31;;;;;;;5.35;4.00;;;8.30;32.60;;;;;;6323928;22;20286;-85
2024/04/22 11:06:57;;;;;;;6.25;4.38;;;8.60;29.50;;;;;;6325011;22;20325;-86
2024/04/22 11:09:26;;;;;;;5.65;4.07;;;8.90;31.20;;;;;;6325359;22;20713;-86
2024/04/22 11:11:52;;;;;;;4.57;4.05;;;9.00;30.30;;;;;;6325146;22;20227;-86
2024/04/22 11:14:24;;;;;;;8.40;4.53;;;9.10;31.10;;;;;;6326143;22;20305;-87
2024/04/22 11:16:55;;;;;;;6.20;4.65;;;9.00;28.60;;;;;;6325294;22;20234;-86
2024/04/22 11:19:23;;;;;;;7.60;4.60;;;8.80;30.30;;;;;;6325327;22;20222;-86
2024/04/22 11:21:49;;;;;;;5.20;4.30;;;8.60;29.30;;;;;;6325920;22;20298;-87
2024/04/22 11:24:18;;;;;;;5.95;4.45;;;8.70;31.00;;;;;;6325094;22;20234;-88
2024/04/22 11:26:44;;;;;;;5.88;4.50;;;8.70;29.00;;;;;;6325629;22;20264;-86
2024/04/22 11:29:13;;;;;;;6.85;4.88;;;8.60;31.40;;;;;;6325100;22;20230;-90
2024/04/22 11:31:43;;;;;;;4.55;4.15;;;8.50;30.40;;;;;;6325485;22;20322;-87
2024/04/22 11:34:12;;;;;;;7.75;4.78;;;8.20;31.20;;;;;;6326005;22;20261;-88
2024/04/22 11:36:38;;;;;;;8.05;4.78;;;8.10;33.00;;;;;;6325487;22;20222;-90
2024/04/22 11:39:14;;;;;;;5.43;4.60;;;8.00;35.40;;;;;;6323606;22;20261;-88
2024/04/22 11:41:40;;;;;;;8.07;4.40;;;8.00;33.30;;;;;;6325360;22;20248;-89
2024/04/22 11:44:09;;;;;;;5.35;4.80;;;7.90;34.30;;;;;;6325423;22;20562;-87
2024/04/22 11:46:35;;;;;;;5.03;4.53;;;7.90;32.20;;;;;;6325665;22;20334;-90
2024/04/22 11:49:06;;;;;;;5.13;4.35;;;7.70;34.20;;;;;;6325292;22;20238;-89
2024/04/22 11:51:32;;;;;;;5.90;4.78;;;7.80;33.80;;;;;;6282382;22;20530;-89
2024/04/22 11:54:00;;;;;;;5.35;4.85;;;7.90;33.80;;;;;;6322545;22;20230;-89
2024/04/22 11:56:31;;;;;;;7.28;4.90;;;7.60;34.80;;;;;;6325199;22;20314;-89
2024/04/22 11:59:00;;;;;;;5.38;4.88;;;7.60;35.20;;;;;;6324841;22;20231;-87
2024/04/22 12:01:26;;;;;;;5.05;4.55;;;7.60;36.20;;;;;;6324744;22;20274;-87
2024/04/22 12:03:54;;;;;;;5.03;4.47;;;7.80;36.60;;;;;;6325835;22;20235;-87
2024/04/22 12:06:23;;;;;;;4.97;4.43;;;8.10;37.00;;;;;;6324664;22;20242;-89
2024/04/22 12:08:52;;;;;;;5.45;4.05;;;8.40;32.50;;;;;;6325237;22;20271;-89
2024/04/22 12:11:18;;;;;;;6.20;4.55;;;8.60;31.90;;;;;;6324556;22;20915;-89
2024/04/22 12:13:47;;;;;;;4.85;4.30;;;8.60;30.20;;;;;;6322893;22;20270;-89
2024/04/22 12:16:12;;;;;;;5.70;4.47;;;8.40;30.10;;;;;;6325118;22;20339;-89
2024/04/22 12:18:41;;;;;;;7.60;4.28;;;8.20;32.60;;;;;;6282653;22;20242;-89
2024/04/22 12:21:07;;;;;;;6.30;4.28;;;8.30;32.00;;;;;;6325546;22;20368;-89
2024/04/22 12:23:38;;;;;;;5.63;3.85;;;8.30;32.00;;;;;;6282303;22;20326;-89
2024/04/22 12:26:06;;;;;;;5.28;4.38;;;8.40;30.80;;;;;;6324609;22;20367;-89
2024/04/22 12:28:34;;;;;;;5.80;4.25;;;8.10;31.60;;;;;;6325060;22;20254;-89
2024/04/22 12:31:00;;;;;;;5.05;4.40;;;7.80;31.50;;;;;;6324272;22;20242;-89
2024/04/22 12:33:28;;;;;;;6.25;4.43;;;8.00;32.00;;;;;;6325411;22;20219;-89
2024/04/22 12:35:54;;;;;;;4.97;4.32;;;8.10;31.20;;;;;;6325074;22;20226;-91
2024/04/22 12:38:23;;;;;;;6.10;4.30;;;8.00;31.10;;;;;;6324469;22;21087;-90
2024/04/22 12:40:51;;;;;;;5.25;4.75;;;8.00;31.70;;;;;;6325240;22;20282;-90
2024/04/22 12:43:20;;;;;;;6.85;4.57;;;8.10;31.90;;;;;;6323873;22;20227;-91
2024/04/22 12:45:52;;;;;;;5.40;4.30;;;8.20;32.90;;;;;;6323932;22;20322;-89
2024/04/22 12:51:05;;;;;;;5.05;4.35;;;8.80;29.00;;;;;;6325953;22;20311;-90
2024/04/22 12:53:34;;;;;;;4.43;4.03;;;8.60;27.70;;;;;;6324917;22;20336;-91
2024/04/22 12:56:06;;;;;;;6.07;4.50;;;8.50;27.00;;;;;;6326059;22;20237;-90
2024/04/22 12:58:36;;;;;;;4.65;4.25;;;8.20;28.90;;;;;;6324908;22;20348;-91
2024/04/22 13:01:05;;;;;;;5.82;4.60;;;7.90;29.20;;;;;;6325663;22;21197;-90
2024/04/22 13:03:35;;;;;;;4.97;4.35;;;7.70;32.80;;;;;;6326550;22;20230;-90
2024/04/22 13:06:04;;;;;;;4.68;4.13;;;7.60;34.90;;;;;;6326744;22;20226;-89
2024/04/22 13:08:32;;;;;;;5.55;4.40;;;7.60;34.70;;;;;;6326327;22;20529;-90
2024/04/22 13:11:01;;;;;;;4.70;4.20;;;7.60;33.20;;;;;;6325076;22;20351;-90
2024/04/22 13:13:32;;;;;;;6.38;4.30;;;7.60;32.30;;;;;;6326469;22;20427;-90
2024/04/22 13:16:01;;;;;;;6.68;4.32;;;7.60;31.90;;;;;;6321002;22;20230;-89
2024/04/22 13:18:29;;;;;;;11.20;5.20;;;7.60;32.80;;;;;;6323858;22;20935;-89
2024/04/22 13:20:58;;;;;;;5.47;4.22;;;7.70;32.40;;;;;;6320197;22;20238;-90
2024/04/22 13:23:23;;;;;;;6.18;4.88;;;7.70;32.60;;;;;;6324468;22;20274;-89
2024/04/22 13:25:52;;;;;;;4.60;4.20;;;7.80;31.60;;;;;;6325879;22;20318;-89
2024/04/22 13:28:18;;;;;;;5.55;4.32;;;7.90;32.30;;;;;;6281979;22;20227;-90
2024/04/22 13:30:50;;;;;;;5.65;4.70;;;8.20;30.10;;;;;;6326461;22;20273;-89
2024/04/22 13:33:16;;;;;;;4.60;4.10;;;8.50;30.00;;;;;;6325220;22;20242;-89
2024/04/22 13:35:44;;;;;;;7.18;4.40;;;8.80;29.30;;;;;;6284504;22;20555;-89
2024/04/22 13:38:12;;;;;;;7.47;4.20;;;9.00;29.20;;;;;;6325676;22;20261;-89
2024/04/22 13:40:40;;;;;;;4.22;3.80;;;9.00;24.30;;;;;;6324382;22;20318;-90
2024/04/22 13:43:06;;;;;;;5.75;3.95;;;9.00;25.60;;;;;;6324036;22;20767;-90